Time;durP1;ratioP1;P1;durP2;ratioP2;P2;SDS_P1;SDS_P2;PMS_P1;PMS_P2;Temp;Humidity;BMP_temperature;BMP_pressure;BME280_temperature;BME280_humidity;BME280_pressure;Samples;Min_cycle;Max_cycle;Signal;HPM_P1;HPM_P2
2022/04/30 00:00:48;;;;;;;15.98;10.15;;;5.80;99.90;;;;;;5049571;28;20041;-75
2022/04/30 00:03:14;;;;;;;16.08;8.98;;;5.80;99.90;;;;;;5053464;28;20063;-75
2022/04/30 00:05:39;;;;;;;12.70;9.20;;;5.80;99.90;;;;;;5047301;28;20128;-75
2022/04/30 00:08:05;;;;;;;15.88;9.25;;;5.90;99.90;;;;;;5048896;28;20047;-76
2022/04/30 00:10:37;;;;;;;12.68;9.93;;;5.80;99.90;;;;;;5046380;28;20041;-75
2022/04/30 00:13:11;;;;;;;15.93;8.45;;;5.70;99.90;;;;;;5046519;28;20051;-75
2022/04/30 00:15:37;;;;;;;13.90;8.40;;;5.70;99.90;;;;;;5050887;28;20182;-75
2022/04/30 00:18:04;;;;;;;14.55;9.63;;;5.80;99.90;;;;;;5050154;28;20348;-75
2022/04/30 00:20:29;;;;;;;13.80;8.65;;;5.80;99.90;;;;;;5047104;28;20041;-75
2022/04/30 00:22:55;;;;;;;14.27;9.30;;;5.90;99.90;;;;;;5043848;28;20037;-75
2022/04/30 00:25:21;;;;;;;12.32;8.40;;;6.00;99.90;;;;;;5043351;28;20506;-74
2022/04/30 00:27:47;;;;;;;10.68;9.10;;;6.00;99.90;;;;;;5044313;28;20111;-76
2022/04/30 00:30:14;;;;;;;9.93;8.40;;;6.00;99.90;;;;;;5045431;28;20048;-76
2022/04/30 00:32:40;;;;;;;15.75;8.77;;;5.80;99.90;;;;;;5050715;28;20103;-76
2022/04/30 00:35:06;;;;;;;16.23;10.02;;;5.80;99.90;;;;;;5056870;28;20044;-77
2022/04/30 00:37:32;;;;;;;16.83;9.48;;;5.90;99.90;;;;;;5062690;28;20191;-76
2022/04/30 00:39:57;;;;;;;16.65;9.15;;;5.80;99.90;;;;;;5047372;28;20139;-76
2022/04/30 00:42:23;;;;;;;13.52;8.73;;;5.80;99.90;;;;;;5049996;28;20124;-77
2022/04/30 00:44:49;;;;;;;19.13;8.23;;;5.70;99.90;;;;;;5048064;28;20040;-76
2022/04/30 00:47:19;;;;;;;11.73;7.55;;;5.70;99.90;;;;;;5048833;28;20037;-77
2022/04/30 00:49:45;;;;;;;12.45;9.23;;;5.70;99.90;;;;;;5048619;28;20057;-76
2022/04/30 00:52:15;;;;;;;14.80;9.82;;;5.70;99.90;;;;;;5049623;28;20491;-76
2022/04/30 00:54:41;;;;;;;14.90;8.93;;;5.60;99.90;;;;;;5048874;28;20041;-76
2022/04/30 00:57:11;;;;;;;19.08;9.02;;;5.60;99.90;;;;;;5046580;28;20091;-76
2022/04/30 00:59:40;;;;;;;12.52;7.85;;;5.50;99.90;;;;;;5059596;28;20047;-75
2022/04/30 01:02:09;;;;;;;12.05;8.90;;;5.50;99.90;;;;;;5044808;28;20047;-75
2022/04/30 01:04:35;;;;;;;12.48;9.55;;;5.60;99.90;;;;;;5054396;28;20102;-74
2022/04/30 01:07:08;;;;;;;11.93;8.52;;;5.50;99.90;;;;;;5046950;28;20045;-74
2022/04/30 01:09:39;;;;;;;13.82;10.88;;;5.60;99.90;;;;;;5031729;28;20056;-75
2022/04/30 01:12:10;;;;;;;16.77;10.25;;;5.60;99.90;;;;;;5050217;28;20387;-76
2022/04/30 01:14:40;;;;;;;17.48;9.98;;;5.60;99.90;;;;;;5040262;28;20124;-76
2022/04/30 01:17:09;;;;;;;11.18;8.07;;;5.50;99.90;;;;;;5042371;28;20075;-76
2022/04/30 01:19:37;;;;;;;13.63;9.13;;;5.50;99.90;;;;;;5042844;28;20371;-75
2022/04/30 01:22:20;;;;;;;26.80;10.98;;;5.50;99.90;;;;;;5058985;28;20040;-76
2022/04/30 01:24:46;;;;;;;11.35;8.23;;;5.50;99.90;;;;;;5064059;28;20074;-76
2022/04/30 01:27:13;;;;;;;16.50;7.88;;;5.50;99.90;;;;;;5061355;28;20080;-75
2022/04/30 01:29:38;;;;;;;18.80;9.82;;;5.60;99.90;;;;;;5046850;28;20045;-76
2022/04/30 01:37:36;;;;;;;14.07;8.77;;;5.50;99.90;;;;;;5048470;28;20045;-76
2022/04/30 01:40:10;;;;;;;14.23;9.77;;;5.60;99.90;;;;;;5043157;28;21879;-73
2022/04/30 01:42:42;;;;;;;17.90;8.43;;;5.60;99.90;;;;;;5051920;28;20049;-75
2022/04/30 01:45:09;;;;;;;16.85;8.15;;;5.60;99.90;;;;;;5053265;28;20036;-75
2022/04/30 01:47:38;;;;;;;11.20;8.68;;;5.70;99.90;;;;;;5048072;28;20047;-75
2022/04/30 01:50:06;;;;;;;14.32;8.32;;;5.70;99.90;;;;;;5060420;28;20056;-75
2022/04/30 01:52:31;;;;;;;10.98;8.27;;;5.70;99.90;;;;;;5061755;28;20441;-75
2022/04/30 01:54:58;;;;;;;13.68;8.05;;;5.60;99.90;;;;;;5069468;28;20090;-75
2022/04/30 01:57:26;;;;;;;10.88;7.55;;;5.60;99.90;;;;;;5050613;28;20041;-75
2022/04/30 01:59:56;;;;;;;15.10;8.23;;;5.60;99.90;;;;;;5042690;28;20386;-75
2022/04/30 02:02:24;;;;;;;12.80;7.88;;;5.60;99.90;;;;;;5053213;28;20147;-75
2022/04/30 02:04:52;;;;;;;15.25;7.93;;;5.50;99.90;;;;;;5048623;28;20044;-75
2022/04/30 02:07:20;;;;;;;11.40;8.60;;;5.60;99.90;;;;;;5047801;28;20238;-76
2022/04/30 02:09:51;;;;;;;10.10;8.18;;;5.50;99.90;;;;;;5047414;28;20048;-76
2022/04/30 02:12:17;;;;;;;17.58;7.72;;;5.60;99.90;;;;;;5046212;28;20442;-76
2022/04/30 02:14:48;;;;;;;11.80;7.35;;;5.60;99.90;;;;;;5037115;28;20044;-76
2022/04/30 02:17:15;;;;;;;10.85;7.38;;;5.60;99.90;;;;;;5042133;28;20055;-76
2022/04/30 02:22:30;;;;;;;10.82;7.95;;;5.60;99.90;;;;;;5051167;28;20080;-76
2022/04/30 02:24:57;;;;;;;10.90;7.43;;;5.70;99.90;;;;;;5050853;28;20667;-76
2022/04/30 02:27:23;;;;;;;14.32;9.15;;;5.60;99.90;;;;;;5058532;28;20048;-76
2022/04/30 02:29:49;;;;;;;10.68;6.88;;;5.60;99.90;;;;;;5055112;28;20052;-76
2022/04/30 02:32:15;;;;;;;15.00;7.45;;;5.60;99.90;;;;;;5056517;28;20556;-76
2022/04/30 02:34:40;;;;;;;25.67;9.65;;;5.60;99.90;;;;;;5047939;28;20099;-76
2022/04/30 02:37:06;;;;;;;17.48;8.45;;;5.60;99.90;;;;;;5046916;28;20606;-77
2022/04/30 02:39:32;;;;;;;14.10;8.60;;;5.60;99.90;;;;;;5046375;28;20041;-76
2022/04/30 02:41:57;;;;;;;10.05;7.55;;;5.60;99.90;;;;;;5054130;28;20053;-76
2022/04/30 02:44:26;;;;;;;11.38;7.47;;;5.60;99.90;;;;;;5052780;28;20049;-76
2022/04/30 02:46:54;;;;;;;10.23;7.90;;;5.60;99.90;;;;;;5051330;28;20072;-76
2022/04/30 02:49:21;;;;;;;9.23;6.70;;;5.60;99.90;;;;;;5022327;28;20041;-76
2022/04/30 02:51:47;;;;;;;12.20;7.93;;;5.60;99.90;;;;;;5052618;28;20040;-76
2022/04/30 02:54:13;;;;;;;10.90;8.20;;;5.60;99.90;;;;;;5055639;28;20041;-76
2022/04/30 02:56:39;;;;;;;14.25;8.43;;;5.60;99.90;;;;;;5055067;28;20068;-76
2022/04/30 03:01:48;;;;;;;15.85;9.43;;;5.50;99.90;;;;;;5050803;28;20442;-75
2022/04/30 03:04:14;;;;;;;11.80;8.52;;;5.50;99.90;;;;;;5048780;28;20086;-76
2022/04/30 03:06:39;;;;;;;19.55;9.18;;;5.50;99.90;;;;;;5051230;28;20963;-75
2022/04/30 03:09:05;;;;;;;11.98;7.82;;;5.50;99.90;;;;;;5057031;28;20055;-75
2022/04/30 03:11:31;;;;;;;12.18;8.55;;;5.60;99.90;;;;;;5057670;28;20032;-75
2022/04/30 03:13:57;;;;;;;12.23;8.25;;;5.60;99.90;;;;;;5049380;28;20391;-75
2022/04/30 03:21:52;;;;;;;11.35;8.10;;;5.80;99.90;;;;;;5048918;28;20051;-75
2022/04/30 03:24:18;;;;;;;13.60;8.23;;;5.80;99.90;;;;;;5048316;28;20044;-76
2022/04/30 03:26:49;;;;;;;14.20;9.05;;;5.70;99.90;;;;;;5048279;28;20056;-76
2022/04/30 03:29:15;;;;;;;9.88;8.32;;;5.80;99.90;;;;;;5048829;28;20045;-76
2022/04/30 03:31:44;;;;;;;10.77;7.35;;;5.70;99.90;;;;;;5062817;28;20041;-76
2022/04/30 03:34:12;;;;;;;13.60;7.72;;;5.70;99.90;;;;;;5060729;28;20033;-76
2022/04/30 03:36:38;;;;;;;13.77;8.35;;;5.80;99.90;;;;;;5050397;28;20150;-76
2022/04/30 03:39:05;;;;;;;11.57;8.95;;;5.80;99.90;;;;;;5058236;28;20087;-76
2022/04/30 03:41:30;;;;;;;22.98;10.07;;;5.80;99.90;;;;;;5057280;28;20037;-77
2022/04/30 03:43:56;;;;;;;15.15;8.43;;;5.90;99.90;;;;;;5060655;28;20552;-76
2022/04/30 03:46:22;;;;;;;10.60;8.75;;;6.00;99.90;;;;;;5048872;28;20068;-77
2022/04/30 03:48:53;;;;;;;9.52;7.15;;;5.90;99.90;;;;;;5048490;28;20090;-77
2022/04/30 03:51:22;;;;;;;10.55;8.00;;;5.90;99.90;;;;;;5049517;28;20037;-76
2022/04/30 03:53:48;;;;;;;13.60;8.13;;;5.90;99.90;;;;;;5051765;28;20041;-76
2022/04/30 03:56:16;;;;;;;13.75;8.50;;;5.90;99.90;;;;;;5048752;28;20078;-77
2022/04/30 03:58:43;;;;;;;13.32;8.60;;;5.80;99.90;;;;;;5029549;28;20048;-76
2022/04/30 04:01:08;;;;;;;9.52;8.52;;;5.80;99.90;;;;;;5047310;28;20572;-77
2022/04/30 04:03:36;;;;;;;8.82;6.75;;;5.80;99.90;;;;;;5048052;28;20099;-76
2022/04/30 04:06:01;;;;;;;10.32;9.02;;;5.80;99.90;;;;;;5047532;28;20033;-75
2022/04/30 04:08:28;;;;;;;15.65;9.35;;;5.70;99.90;;;;;;5052703;28;20116;-75
2022/04/30 04:10:54;;;;;;;10.02;8.57;;;5.60;99.90;;;;;;5050336;28;20045;-74
2022/04/30 04:19:09;;;;;;;14.43;9.45;;;5.50;99.90;;;;;;4974881;28;20058;-76
2022/04/30 04:21:35;;;;;;;16.63;10.13;;;5.50;99.90;;;;;;5030457;28;20415;-76
2022/04/30 04:26:45;;;;;;;17.98;9.70;;;5.50;99.90;;;;;;5056818;28;20049;-76
2022/04/30 04:29:11;;;;;;;15.93;10.38;;;5.50;99.90;;;;;;5030750;28;20510;-75
2022/04/30 04:31:37;;;;;;;16.17;9.85;;;5.60;99.90;;;;;;5048465;28;20039;-75
2022/04/30 04:34:03;;;;;;;11.45;9.52;;;5.70;99.90;;;;;;5059463;28;22065;-77
2022/04/30 04:36:28;;;;;;;17.13;9.25;;;5.60;99.90;;;;;;5062020;28;20064;-75
2022/04/30 04:38:54;;;;;;;11.43;9.43;;;5.80;99.90;;;;;;5047880;28;20079;-77
2022/04/30 04:41:20;;;;;;;19.92;10.80;;;5.70;99.90;;;;;;5046154;28;20127;-76
2022/04/30 04:43:45;;;;;;;11.40;9.02;;;5.80;99.90;;;;;;5042173;28;20403;-76
2022/04/30 04:46:12;;;;;;;15.75;11.38;;;5.80;99.90;;;;;;5054227;28;20057;-76
2022/04/30 04:48:38;;;;;;;13.45;9.75;;;5.80;99.90;;;;;;5057614;28;20056;-76
2022/04/30 04:51:04;;;;;;;16.30;10.27;;;5.90;99.90;;;;;;5055318;28;20028;-76
2022/04/30 04:53:29;;;;;;;14.90;9.02;;;5.90;99.90;;;;;;5049430;28;20131;-76
2022/04/30 04:55:55;;;;;;;13.57;10.95;;;6.00;99.90;;;;;;5054701;28;20045;-76
2022/04/30 04:58:21;;;;;;;13.40;9.90;;;6.00;99.90;;;;;;5050894;28;20048;-76
2022/04/30 05:00:46;;;;;;;21.15;11.57;;;6.00;99.90;;;;;;5054832;28;20129;-76
2022/04/30 05:03:13;;;;;;;14.57;10.15;;;6.00;99.90;;;;;;5048083;28;20131;-75
2022/04/30 05:05:39;;;;;;;11.73;10.52;;;6.10;99.90;;;;;;5046408;28;20163;-76
2022/04/30 05:08:04;;;;;;;10.65;9.48;;;6.10;99.90;;;;;;5054949;28;20049;-76
2022/04/30 05:10:30;;;;;;;22.80;10.55;;;6.20;99.90;;;;;;5041776;28;20039;-76
2022/04/30 05:12:56;;;;;;;16.17;8.60;;;6.20;99.90;;;;;;5050848;28;20491;-76
2022/04/30 05:15:21;;;;;;;11.18;8.80;;;6.20;99.90;;;;;;5045434;28;20081;-75
2022/04/30 05:17:47;;;;;;;11.07;9.23;;;6.30;99.90;;;;;;5043225;28;20129;-75
2022/04/30 05:20:13;;;;;;;14.50;9.13;;;6.30;99.90;;;;;;5040736;28;20091;-75
2022/04/30 05:22:38;;;;;;;19.20;9.95;;;6.30;99.90;;;;;;5045416;28;20060;-76
2022/04/30 05:25:04;;;;;;;12.65;8.85;;;6.50;99.90;;;;;;5048787;28;20049;-75
2022/04/30 05:27:30;;;;;;;14.63;9.13;;;6.50;99.90;;;;;;5047905;28;20056;-75
2022/04/30 05:29:55;;;;;;;13.50;10.05;;;6.50;99.90;;;;;;5046123;28;20601;-75
2022/04/30 05:32:21;;;;;;;13.77;9.25;;;6.60;99.90;;;;;;5064253;28;20131;-76
2022/04/30 05:34:47;;;;;;;11.55;8.57;;;6.70;99.90;;;;;;5053930;28;20040;-75
2022/04/30 05:37:13;;;;;;;12.07;9.48;;;6.70;99.90;;;;;;5051261;28;20148;-76
2022/04/30 05:39:38;;;;;;;16.30;9.27;;;6.70;99.90;;;;;;5046937;28;20551;-76
2022/04/30 05:42:04;;;;;;;15.18;8.40;;;6.80;99.90;;;;;;5048464;28;20099;-76
2022/04/30 05:44:30;;;;;;;14.48;8.02;;;6.90;99.90;;;;;;5047240;28;20076;-76
2022/04/30 05:46:56;;;;;;;16.33;10.05;;;6.90;99.90;;;;;;5050723;28;20538;-76
2022/04/30 05:49:21;;;;;;;14.02;9.50;;;7.00;99.90;;;;;;5048268;28;20041;-77
2022/04/30 05:51:49;;;;;;;10.43;8.85;;;7.10;99.90;;;;;;5046558;28;20041;-76
2022/04/30 05:54:16;;;;;;;12.15;8.45;;;7.10;99.90;;;;;;5031012;28;20575;-77
2022/04/30 05:56:41;;;;;;;9.50;8.25;;;7.20;99.90;;;;;;5053174;28;20036;-76
2022/04/30 05:59:07;;;;;;;17.80;9.23;;;7.20;99.90;;;;;;5047313;28;20513;-76
2022/04/30 06:01:32;;;;;;;14.75;8.10;;;7.20;99.90;;;;;;5060444;28;20072;-75
2022/04/30 06:03:58;;;;;;;13.73;8.18;;;7.20;99.90;;;;;;5046914;28;20045;-76
2022/04/30 06:06:24;;;;;;;12.57;8.52;;;7.30;99.90;;;;;;5048659;28;20050;-75
2022/04/30 06:08:49;;;;;;;11.10;9.38;;;7.20;99.90;;;;;;5049206;28;20080;-76
2022/04/30 06:11:15;;;;;;;13.45;8.82;;;7.40;99.90;;;;;;5045605;28;20067;-76
2022/04/30 06:13:40;;;;;;;11.80;8.63;;;7.40;99.90;;;;;;5050187;28;20049;-76
2022/04/30 06:16:06;;;;;;;13.20;8.43;;;7.50;99.90;;;;;;5046292;28;20041;-75
2022/04/30 06:18:31;;;;;;;12.30;8.32;;;7.50;99.90;;;;;;5059690;28;20098;-75
2022/04/30 06:20:58;;;;;;;10.23;8.77;;;7.60;99.90;;;;;;5068916;28;20131;-77
2022/04/30 06:23:23;;;;;;;15.15;8.63;;;7.70;99.90;;;;;;5051737;28;20047;-75
2022/04/30 06:25:49;;;;;;;16.30;9.45;;;7.70;99.90;;;;;;5061777;28;20127;-76
2022/04/30 06:28:15;;;;;;;13.35;9.20;;;7.80;99.90;;;;;;5030979;28;20491;-76
2022/04/30 06:30:42;;;;;;;16.20;9.02;;;7.80;99.90;;;;;;5054818;28;20044;-76
2022/04/30 06:33:08;;;;;;;10.90;9.65;;;7.90;99.90;;;;;;5052166;28;20037;-77
2022/04/30 06:35:35;;;;;;;10.43;8.80;;;8.00;99.90;;;;;;5053759;28;20052;-76
2022/04/30 06:38:00;;;;;;;12.35;8.75;;;8.00;99.90;;;;;;5057796;28;20419;-72
2022/04/30 06:40:27;;;;;;;11.02;8.82;;;8.10;99.90;;;;;;5049963;28;20044;-75
2022/04/30 06:42:52;;;;;;;14.93;9.38;;;8.20;99.90;;;;;;5050232;28;20053;-75
2022/04/30 06:45:18;;;;;;;8.82;7.40;;;8.20;99.90;;;;;;5053873;28;20040;-75
2022/04/30 06:47:44;;;;;;;13.00;8.63;;;8.30;99.90;;;;;;5050591;28;20037;-76
2022/04/30 06:50:10;;;;;;;12.70;9.07;;;8.30;99.90;;;;;;5051619;28;20052;-75
2022/04/30 06:57:07;;;;;;;16.98;10.88;;;8.40;99.90;;;;;;5051778;28;20041;-75
2022/04/30 06:58:08;;;;;;;9.25;8.15;;;8.40;99.90;;;;;;5023498;28;20501;-75
2022/04/30 07:03:22;;;;;;;12.40;7.88;;;8.50;99.90;;;;;;5050407;28;20049;-75
2022/04/30 07:05:51;;;;;;;9.27;7.30;;;8.50;99.90;;;;;;5054046;28;20403;-75
2022/04/30 07:08:17;;;;;;;11.55;8.80;;;8.50;99.90;;;;;;5054070;28;20049;-75
2022/04/30 07:10:43;;;;;;;11.70;8.93;;;8.50;99.90;;;;;;5045431;28;20036;-75
2022/04/30 07:13:08;;;;;;;12.30;9.00;;;8.50;99.90;;;;;;5048875;28;20068;-76
2022/04/30 07:15:34;;;;;;;14.65;8.15;;;8.50;99.90;;;;;;5054666;28;20032;-74
2022/04/30 07:18:00;;;;;;;8.40;7.53;;;8.50;99.90;;;;;;5046340;28;20487;-76
2022/04/30 07:20:25;;;;;;;14.38;8.43;;;8.50;99.90;;;;;;5049120;28;20044;-75
2022/04/30 07:22:51;;;;;;;9.40;7.82;;;8.70;99.90;;;;;;5050723;28;20937;-76
2022/04/30 07:25:17;;;;;;;15.25;8.00;;;8.60;99.90;;;;;;5057970;28;20092;-75
2022/04/30 07:27:42;;;;;;;10.52;8.18;;;8.70;99.90;;;;;;5050804;28;20088;-75
2022/04/30 07:30:08;;;;;;;17.23;7.50;;;8.70;99.90;;;;;;5043346;28;20091;-76
2022/04/30 07:32:34;;;;;;;13.07;8.68;;;8.70;99.90;;;;;;5050752;28;20417;-76
2022/04/30 07:34:59;;;;;;;14.07;8.98;;;8.70;99.90;;;;;;5061932;28;20446;-76
2022/04/30 07:37:25;;;;;;;18.10;9.07;;;8.80;99.90;;;;;;5047557;28;20124;-76
2022/04/30 07:39:50;;;;;;;27.27;9.95;;;8.80;99.90;;;;;;5055947;28;20098;-76
2022/04/30 07:42:16;;;;;;;14.05;8.23;;;9.00;99.90;;;;;;5048316;28;20053;-76
2022/04/30 07:44:41;;;;;;;15.02;8.00;;;8.90;99.90;;;;;;5049359;28;20040;-76
2022/04/30 07:47:08;;;;;;;16.15;8.13;;;9.10;99.90;;;;;;5050413;28;20041;-76
2022/04/30 07:49:34;;;;;;;15.13;7.22;;;9.40;99.90;;;;;;5047403;28;20064;-76
2022/04/30 07:52:00;;;;;;;10.65;6.82;;;9.70;99.90;;;;;;5061309;28;20128;-76
2022/04/30 07:54:26;;;;;;;9.50;7.57;;;9.90;99.90;;;;;;5049131;28;20131;-76
2022/04/30 07:56:53;;;;;;;9.10;7.55;;;10.10;99.90;;;;;;5047804;28;20052;-75
2022/04/30 07:59:20;;;;;;;12.25;7.85;;;10.10;99.90;;;;;;5044418;28;20080;-75
2022/04/30 08:01:47;;;;;;;15.65;8.07;;;10.20;99.90;;;;;;5054086;28;20124;-75
2022/04/30 08:04:13;;;;;;;9.05;7.45;;;10.20;99.90;;;;;;5045514;28;20136;-76
2022/04/30 08:06:38;;;;;;;24.92;10.93;;;10.20;99.90;;;;;;5044939;28;20111;-77
2022/04/30 08:09:04;;;;;;;14.02;8.27;;;10.20;99.90;;;;;;5051652;28;20373;-75
2022/04/30 08:11:30;;;;;;;9.77;7.15;;;10.20;99.90;;;;;;5061434;28;20051;-75
2022/04/30 08:13:55;;;;;;;10.57;7.22;;;10.30;99.90;;;;;;5046465;28;20052;-77
2022/04/30 08:16:21;;;;;;;15.35;7.97;;;10.40;99.90;;;;;;5045861;28;20033;-76
2022/04/30 08:18:46;;;;;;;10.45;8.05;;;10.30;99.90;;;;;;5042474;28;20037;-75
2022/04/30 08:21:12;;;;;;;12.93;7.15;;;10.30;99.90;;;;;;5049506;28;20059;-77
2022/04/30 08:23:37;;;;;;;9.55;7.70;;;10.40;99.90;;;;;;5051110;28;20048;-76
2022/04/30 08:26:04;;;;;;;9.98;7.68;;;10.30;99.90;;;;;;5060970;28;20049;-76
2022/04/30 08:28:30;;;;;;;14.20;7.03;;;10.50;99.90;;;;;;5049429;28;20053;-76
2022/04/30 08:30:57;;;;;;;9.73;6.32;;;10.60;99.90;;;;;;5049879;28;20182;-75
2022/04/30 08:33:22;;;;;;;10.88;7.28;;;10.50;99.90;;;;;;5060881;28;20052;-73
2022/04/30 08:35:48;;;;;;;12.18;7.97;;;10.50;99.90;;;;;;5066976;28;20037;-77
2022/04/30 08:38:14;;;;;;;8.90;7.32;;;10.50;99.90;;;;;;5068356;28;20128;-75
2022/04/30 08:40:42;;;;;;;14.13;7.30;;;10.50;99.90;;;;;;5063875;28;20047;-75
2022/04/30 08:43:13;;;;;;;14.48;6.50;;;10.50;99.90;;;;;;5051523;28;20048;-74
2022/04/30 08:45:41;;;;;;;13.60;7.60;;;10.60;99.90;;;;;;5052301;28;20048;-74
2022/04/30 08:48:08;;;;;;;12.15;6.63;;;10.60;99.90;;;;;;5069424;28;20045;-74
2022/04/30 08:50:34;;;;;;;7.65;6.30;;;10.60;99.90;;;;;;5064903;28;20040;-74
2022/04/30 08:53:00;;;;;;;12.45;7.47;;;10.40;99.90;;;;;;5065390;28;20055;-73
2022/04/30 08:55:26;;;;;;;7.32;5.47;;;10.50;99.90;;;;;;5063482;28;20522;-74
2022/04/30 08:57:52;;;;;;;9.77;6.53;;;10.50;99.90;;;;;;5043504;28;20041;-75
2022/04/30 09:00:18;;;;;;;9.25;5.80;;;10.40;99.90;;;;;;5050294;28;20037;-75
2022/04/30 09:02:59;;;;;;;17.85;7.97;;;10.40;99.90;;;;;;5049813;28;20136;-75
2022/04/30 09:05:32;;;;;;;7.70;5.63;;;10.50;99.90;;;;;;5061908;28;20041;-75
2022/04/30 09:08:00;;;;;;;10.60;6.53;;;10.40;99.90;;;;;;5035900;28;20049;-76
2022/04/30 09:10:28;;;;;;;8.98;6.40;;;10.50;99.90;;;;;;5048750;28;20098;-75
2022/04/30 09:13:02;;;;;;;10.93;5.60;;;10.40;99.90;;;;;;5031060;28;20037;-75
2022/04/30 09:15:30;;;;;;;8.73;5.80;;;10.40;99.90;;;;;;5031828;28;20140;-75
2022/04/30 09:18:00;;;;;;;11.98;7.50;;;10.50;99.90;;;;;;5048084;28;20047;-74
2022/04/30 09:20:26;;;;;;;12.23;8.43;;;10.50;99.90;;;;;;5048974;28;20048;-74
2022/04/30 09:22:52;;;;;;;17.73;8.13;;;10.40;99.90;;;;;;5046467;28;20041;-73
2022/04/30 09:25:18;;;;;;;12.77;7.38;;;10.20;99.90;;;;;;5050157;28;20400;-74
2022/04/30 09:27:46;;;;;;;10.93;8.35;;;10.20;99.90;;;;;;5048282;28;20048;-75
2022/04/30 09:30:18;;;;;;;13.07;9.45;;;10.10;99.90;;;;;;5048731;28;20040;-75
2022/04/30 09:32:45;;;;;;;17.02;8.38;;;10.00;99.90;;;;;;5049713;28;20041;-74
2022/04/30 09:38:05;;;;;;;12.88;7.72;;;9.90;99.90;;;;;;5054484;28;20471;-74
2022/04/30 09:40:31;;;;;;;15.45;7.68;;;10.00;99.90;;;;;;5048764;28;20451;-73
2022/04/30 09:42:58;;;;;;;16.80;8.98;;;10.00;99.90;;;;;;5048549;28;20079;-71
2022/04/30 09:45:29;;;;;;;11.88;8.10;;;10.00;99.90;;;;;;5049502;28;20056;-74
2022/04/30 09:47:55;;;;;;;12.57;8.23;;;10.00;99.90;;;;;;5049900;28;20041;-75
2022/04/30 09:55:59;;;;;;;14.43;7.97;;;10.00;99.90;;;;;;5062832;28;20048;-74
2022/04/30 09:58:27;;;;;;;13.75;7.78;;;10.00;99.90;;;;;;5052215;28;20055;-73
2022/04/30 10:00:57;;;;;;;15.55;8.90;;;10.00;99.90;;;;;;5048690;28;20045;-74
2022/04/30 10:03:29;;;;;;;14.05;8.43;;;9.90;99.90;;;;;;5051862;28;20040;-74
2022/04/30 10:06:00;;;;;;;17.40;8.73;;;10.00;99.90;;;;;;5059356;28;20048;-75
2022/04/30 10:08:32;;;;;;;14.90;9.30;;;9.90;99.90;;;;;;5035949;28;20052;-76
2022/04/30 10:11:14;;;;;;;14.80;9.77;;;10.20;99.90;;;;;;5053011;28;20049;-74
2022/04/30 10:13:49;;;;;;;12.10;8.90;;;10.30;99.90;;;;;;5025749;28;20067;-75
2022/04/30 10:16:28;;;;;;;11.55;7.50;;;10.20;99.90;;;;;;5061304;28;20028;-74
2022/04/30 10:18:58;;;;;;;13.05;7.40;;;10.20;99.90;;;;;;5059323;28;20053;-74
2022/04/30 10:21:24;;;;;;;7.45;5.88;;;10.20;99.90;;;;;;5053213;28;20116;-73
2022/04/30 10:24:00;;;;;;;10.80;6.28;;;10.40;99.90;;;;;;5051667;28;20452;-74
2022/04/30 10:26:26;;;;;;;9.95;6.40;;;10.50;99.90;;;;;;5051836;28;20088;-74
2022/04/30 10:29:09;;;;;;;6.43;5.22;;;10.30;99.90;;;;;;5051129;28;20037;-74
2022/04/30 10:31:43;;;;;;;8.27;5.55;;;10.40;99.90;;;;;;5052159;28;20049;-74
2022/04/30 10:34:09;;;;;;;16.05;7.32;;;10.20;99.90;;;;;;5052118;28;20580;-75
2022/04/30 10:36:37;;;;;;;8.27;6.20;;;10.20;99.90;;;;;;5051158;28;20108;-74
2022/04/30 10:39:06;;;;;;;14.88;7.30;;;10.40;99.90;;;;;;5052639;28;20550;-74
2022/04/30 10:42:06;;;;;;;8.95;6.18;;;10.30;99.90;;;;;;5051353;28;20049;-70
2022/04/30 10:44:32;;;;;;;9.50;5.82;;;10.40;99.90;;;;;;5026470;28;20059;-75
2022/04/30 10:47:14;;;;;;;8.85;5.68;;;10.40;99.90;;;;;;5067616;28;20051;-75
2022/04/30 10:49:40;;;;;;;10.25;5.30;;;10.30;99.90;;;;;;5053414;28;20053;-75
2022/04/30 10:52:08;;;;;;;9.48;5.18;;;10.40;99.90;;;;;;5052000;28;20055;-75
2022/04/30 10:54:34;;;;;;;10.20;5.38;;;10.40;99.90;;;;;;5052301;28;20091;-75
2022/04/30 10:57:02;;;;;;;6.97;4.55;;;10.40;99.90;;;;;;5056563;28;20086;-75
2022/04/30 10:59:28;;;;;;;5.68;5.10;;;10.50;99.90;;;;;;5054053;28;20041;-76
2022/04/30 11:01:54;;;;;;;7.97;5.65;;;10.60;99.90;;;;;;5051879;28;20128;-76
2022/04/30 11:04:21;;;;;;;9.45;4.72;;;10.50;99.90;;;;;;5051487;28;20070;-75
2022/04/30 11:06:52;;;;;;;8.20;4.22;;;10.50;99.90;;;;;;5049914;28;20411;-75
2022/04/30 11:09:18;;;;;;;7.75;4.38;;;10.50;99.90;;;;;;5052451;28;20059;-74
2022/04/30 11:11:47;;;;;;;9.05;5.20;;;10.80;99.90;;;;;;5050600;28;20048;-74
2022/04/30 11:14:13;;;;;;;9.18;4.18;;;10.90;99.90;;;;;;5049050;28;20049;-74
2022/04/30 11:16:42;;;;;;;8.77;4.25;;;11.00;99.90;;;;;;5050525;28;20072;-73
2022/04/30 11:19:10;;;;;;;11.00;5.03;;;11.00;99.90;;;;;;5050430;28;20052;-74
2022/04/30 11:21:38;;;;;;;14.18;4.70;;;10.80;99.90;;;;;;5051168;28;20056;-74
2022/04/30 11:24:05;;;;;;;7.25;4.28;;;10.80;99.90;;;;;;5050603;28;20548;-75
2022/04/30 11:26:38;;;;;;;8.55;4.80;;;10.90;99.90;;;;;;5053805;28;20056;-73
2022/04/30 11:29:11;;;;;;;8.05;4.20;;;10.90;99.90;;;;;;5059685;28;20092;-75
2022/04/30 11:31:38;;;;;;;6.43;5.05;;;11.10;99.90;;;;;;5068952;28;20117;-75
2022/04/30 11:34:17;;;;;;;9.07;3.95;;;11.10;99.90;;;;;;5070388;28;20040;-75
2022/04/30 11:36:45;;;;;;;8.95;4.10;;;11.20;99.90;;;;;;5051219;28;20044;-75
2022/04/30 11:39:12;;;;;;;7.63;4.15;;;11.30;99.90;;;;;;5065530;28;20060;-75
2022/04/30 11:41:42;;;;;;;10.55;5.55;;;11.40;99.90;;;;;;5071321;28;20411;-75
2022/04/30 11:44:12;;;;;;;7.63;5.13;;;11.50;99.90;;;;;;5050400;28;20124;-75
2022/04/30 11:46:44;;;;;;;7.53;4.15;;;11.30;99.90;;;;;;5049537;28;20057;-74
2022/04/30 11:49:11;;;;;;;10.90;4.88;;;11.10;99.90;;;;;;5063223;28;20037;-74
2022/04/30 11:51:38;;;;;;;7.63;4.07;;;11.20;99.90;;;;;;5071069;28;20036;-75
2022/04/30 11:54:08;;;;;;;9.20;4.35;;;11.40;99.90;;;;;;5053070;28;20155;-75
2022/04/30 11:56:35;;;;;;;10.45;3.65;;;11.30;99.90;;;;;;5050378;28;20198;-76
2022/04/30 11:59:01;;;;;;;7.22;3.28;;;11.30;99.90;;;;;;5061032;28;20045;-75
2022/04/30 12:01:30;;;;;;;7.03;2.75;;;11.60;99.90;;;;;;5070797;28;20045;-74
2022/04/30 12:04:09;;;;;;;7.85;3.22;;;11.80;99.90;;;;;;5050291;28;20049;-74
2022/04/30 12:06:39;;;;;;;5.28;3.08;;;12.00;99.90;;;;;;5055228;28;20044;-75
2022/04/30 12:09:18;;;;;;;7.10;3.70;;;11.80;99.90;;;;;;5068490;28;20483;-74
2022/04/30 12:11:49;;;;;;;3.28;2.92;;;11.50;99.90;;;;;;5064346;28;20345;-75
2022/04/30 12:14:15;;;;;;;4.70;2.28;;;12.00;99.90;;;;;;5047223;28;20124;-75
2022/04/30 12:16:42;;;;;;;7.80;2.60;;;12.00;99.90;;;;;;5049882;28;20112;-75
2022/04/30 12:25:33;;;;;;;3.25;2.92;;;12.20;99.90;;;;;;5027081;28;20048;-74
2022/04/30 12:28:03;;;;;;;8.57;3.28;;;12.20;99.90;;;;;;5049296;28;20106;-76
2022/04/30 12:30:29;;;;;;;;;;;12.30;99.90;;;;;;5071730;28;20079;-74
2022/04/30 12:33:04;;;;;;;4.25;2.45;;;12.40;99.90;;;;;;5061599;28;19972;-72
2022/04/30 12:35:33;;;;;;;8.63;3.50;;;12.30;99.90;;;;;;5060314;28;20068;-75
2022/04/30 12:38:11;;;;;;;7.30;3.78;;;12.40;99.90;;;;;;5061753;28;20040;-76
2022/04/30 12:40:46;;;;;;;6.63;3.50;;;12.20;99.90;;;;;;5050163;28;20095;-74
2022/04/30 12:43:13;;;;;;;6.53;3.05;;;12.40;99.90;;;;;;5042023;28;20480;-77
2022/04/30 12:48:15;;;;;;;6.25;2.78;;;12.80;99.90;;;;;;4573367;22;20490;-76
2022/04/30 12:50:41;;;;;;;6.22;2.70;;;12.50;99.90;;;;;;5018326;28;20061;-73
2022/04/30 12:53:09;;;;;;;7.75;3.58;;;12.70;99.90;;;;;;5026947;28;20045;-70
2022/04/30 12:55:38;;;;;;;6.80;3.03;;;12.70;99.90;;;;;;5030699;28;20095;-73
2022/04/30 12:58:04;;;;;;;5.40;3.38;;;12.60;99.90;;;;;;5009888;28;20065;-74
2022/04/30 13:00:29;;;;;;;7.88;3.70;;;12.60;99.90;;;;;;5015197;28;20116;-73
2022/04/30 13:02:55;;;;;;;13.25;5.22;;;12.90;99.90;;;;;;5027799;28;20468;-73
2022/04/30 13:05:20;;;;;;;7.68;4.85;;;12.90;99.90;;;;;;5030804;28;20049;-73
2022/04/30 13:07:46;;;;;;;14.05;6.47;;;12.70;99.90;;;;;;5030389;28;20517;-73
2022/04/30 13:15:42;;;;;;;12.60;6.00;;;12.40;99.90;;;;;;5030788;28;20057;-73
2022/04/30 13:18:07;;;;;;;8.55;5.25;;;12.40;99.90;;;;;;5029331;28;20099;-73
2022/04/30 13:20:34;;;;;;;7.63;5.80;;;12.40;99.90;;;;;;5028964;28;20638;-74
2022/04/30 13:23:00;;;;;;;9.07;6.03;;;12.10;99.90;;;;;;5029450;28;20056;-73
2022/04/30 13:25:28;;;;;;;7.35;5.82;;;11.90;99.90;;;;;;5029666;28;20120;-74
2022/04/30 13:27:55;;;;;;;9.20;5.10;;;11.80;99.90;;;;;;5030064;28;20533;-73
2022/04/30 13:30:21;;;;;;;10.80;6.15;;;11.80;99.90;;;;;;5028591;28;20034;-74
2022/04/30 13:32:48;;;;;;;9.95;5.85;;;12.10;99.90;;;;;;5026745;28;20065;-75
2022/04/30 13:35:17;;;;;;;13.68;7.07;;;12.00;99.90;;;;;;5030675;28;20050;-74
2022/04/30 13:37:43;;;;;;;8.35;6.18;;;11.90;99.90;;;;;;5030253;28;20457;-75
2022/04/30 13:40:10;;;;;;;12.93;6.35;;;11.80;99.90;;;;;;5029307;28;20052;-74